sensor_id;sensor_type;location;lat;lon;timestamp;temperature;humidity
15257;DHT22;7731;50.720;6.912;2023-07-02T00:00:33;16.50;99.90
15257;DHT22;7731;50.720;6.912;2023-07-02T00:03:05;16.40;99.90
15257;DHT22;7731;50.720;6.912;2023-07-02T00:05:37;16.40;99.90
15257;DHT22;7731;50.720;6.912;2023-07-02T00:08:10;16.30;99.90
15257;DHT22;7731;50.720;6.912;2023-07-02T00:10:43;16.40;99.90
15257;DHT22;7731;50.720;6.912;2023-07-02T00:13:16;16.40;99.90
15257;DHT22;7731;50.720;6.912;2023-07-02T00:15:46;16.40;99.90
15257;DHT22;7731;50.720;6.912;2023-07-02T00:18:29;16.40;99.90
15257;DHT22;7731;50.720;6.912;2023-07-02T00:21:05;16.30;99.90
15257;DHT22;7731;50.720;6.912;2023-07-02T00:23:42;16.30;99.90
15257;DHT22;7731;50.720;6.912;2023-07-02T00:26:13;16.30;99.90
15257;DHT22;7731;50.720;6.912;2023-07-02T00:28:43;16.20;99.90
15257;DHT22;7731;50.720;6.912;2023-07-02T00:31:14;16.20;99.90
15257;DHT22;7731;50.720;6.912;2023-07-02T00:33:44;16.20;99.90
15257;DHT22;7731;50.720;6.912;2023-07-02T00:36:14;16.10;99.90
15257;DHT22;7731;50.720;6.912;2023-07-02T00:38:50;16.00;99.90
15257;DHT22;7731;50.720;6.912;2023-07-02T00:41:20;16.00;99.90
15257;DHT22;7731;50.720;6.912;2023-07-02T00:43:51;15.90;99.90
15257;DHT22;7731;50.720;6.912;2023-07-02T00:46:24;15.90;99.90
15257;DHT22;7731;50.720;6.912;2023-07-02T00:48:55;15.70;99.90
15257;DHT22;7731;50.720;6.912;2023-07-02T00:51:27;15.70;99.90
15257;DHT22;7731;50.720;6.912;2023-07-02T00:54:00;15.70;99.90
15257;DHT22;7731;50.720;6.912;2023-07-02T00:56:30;15.60;99.90
15257;DHT22;7731;50.720;6.912;2023-07-02T00:59:01;15.60;99.90
15257;DHT22;7731;50.720;6.912;2023-07-02T01:01:31;15.70;99.90
15257;DHT22;7731;50.720;6.912;2023-07-02T01:04:06;15.70;99.90
15257;DHT22;7731;50.720;6.912;2023-07-02T01:06:40;15.60;99.90
15257;DHT22;7731;50.720;6.912;2023-07-02T01:09:15;15.60;99.90
15257;DHT22;7731;50.720;6.912;2023-07-02T01:11:49;15.60;99.90
15257;DHT22;7731;50.720;6.912;2023-07-02T01:14:25;15.50;99.90
15257;DHT22;7731;50.720;6.912;2023-07-02T01:17:03;15.40;99.90
15257;DHT22;7731;50.720;6.912;2023-07-02T01:19:46;15.40;99.90
15257;DHT22;7731;50.720;6.912;2023-07-02T01:22:19;15.40;99.90
15257;DHT22;7731;50.720;6.912;2023-07-02T01:24:51;15.50;99.90
15257;DHT22;7731;50.720;6.912;2023-07-02T01:27:22;15.40;99.90
15257;DHT22;7731;50.720;6.912;2023-07-02T01:29:53;15.40;99.90
15257;DHT22;7731;50.720;6.912;2023-07-02T01:32:26;15.30;99.90
15257;DHT22;7731;50.720;6.912;2023-07-02T01:34:59;15.30;99.90
15257;DHT22;7731;50.720;6.912;2023-07-02T01:37:35;15.20;99.90
15257;DHT22;7731;50.720;6.912;2023-07-02T01:40:07;15.30;99.90
15257;DHT22;7731;50.720;6.912;2023-07-02T01:42:38;15.30;99.90
15257;DHT22;7731;50.720;6.912;2023-07-02T01:45:09;15.20;99.90
15257;DHT22;7731;50.720;6.912;2023-07-02T01:47:42;15.20;99.90
15257;DHT22;7731;50.720;6.912;2023-07-02T01:50:15;15.20;99.90
15257;DHT22;7731;50.720;6.912;2023-07-02T01:52:48;15.10;99.90
15257;DHT22;7731;50.720;6.912;2023-07-02T01:55:21;15.10;99.90
15257;DHT22;7731;50.720;6.912;2023-07-02T01:57:51;15.10;99.90
15257;DHT22;7731;50.720;6.912;2023-07-02T02:00:21;15.20;99.90
15257;DHT22;7731;50.720;6.912;2023-07-02T02:02:52;15.20;99.90
15257;DHT22;7731;50.720;6.912;2023-07-02T02:05:25;15.20;99.90
15257;DHT22;7731;50.720;6.912;2023-07-02T02:07:55;15.20;99.90
15257;DHT22;7731;50.720;6.912;2023-07-02T02:10:25;15.30;99.90
15257;DHT22;7731;50.720;6.912;2023-07-02T02:12:56;15.30;99.90
15257;DHT22;7731;50.720;6.912;2023-07-02T02:15:26;15.20;99.90
15257;DHT22;7731;50.720;6.912;2023-07-02T02:17:57;15.10;99.90
15257;DHT22;7731;50.720;6.912;2023-07-02T02:20:30;15.10;99.90
15257;DHT22;7731;50.720;6.912;2023-07-02T02:23:03;15.10;99.90
15257;DHT22;7731;50.720;6.912;2023-07-02T02:25:33;15.00;99.90
15257;DHT22;7731;50.720;6.912;2023-07-02T02:28:09;15.00;99.90
15257;DHT22;7731;50.720;6.912;2023-07-02T02:30:42;15.00;99.90
15257;DHT22;7731;50.720;6.912;2023-07-02T02:33:18;15.00;99.90
15257;DHT22;7731;50.720;6.912;2023-07-02T02:35:53;15.10;99.90
15257;DHT22;7731;50.720;6.912;2023-07-02T02:38:29;15.10;99.90
15257;DHT22;7731;50.720;6.912;2023-07-02T02:41:01;15.10;99.90
15257;DHT22;7731;50.720;6.912;2023-07-02T02:43:31;15.10;99.90
15257;DHT22;7731;50.720;6.912;2023-07-02T02:46:01;15.20;99.90
15257;DHT22;7731;50.720;6.912;2023-07-02T02:48:32;15.40;99.90
15257;DHT22;7731;50.720;6.912;2023-07-02T02:51:07;15.50;99.90
15257;DHT22;7731;50.720;6.912;2023-07-02T02:53:38;15.50;99.90
15257;DHT22;7731;50.720;6.912;2023-07-02T02:56:08;15.50;99.90
15257;DHT22;7731;50.720;6.912;2023-07-02T02:58:46;15.60;99.90
15257;DHT22;7731;50.720;6.912;2023-07-02T03:01:16;15.60;99.90
15257;DHT22;7731;50.720;6.912;2023-07-02T03:03:46;15.60;99.90
15257;DHT22;7731;50.720;6.912;2023-07-02T03:06:19;15.60;99.90
15257;DHT22;7731;50.720;6.912;2023-07-02T03:08:53;15.50;99.90
15257;DHT22;7731;50.720;6.912;2023-07-02T03:11:23;15.50;99.90
15257;DHT22;7731;50.720;6.912;2023-07-02T03:13:53;15.50;99.90
15257;DHT22;7731;50.720;6.912;2023-07-02T03:16:24;15.50;99.90
15257;DHT22;7731;50.720;6.912;2023-07-02T03:19:09;15.40;99.90
15257;DHT22;7731;50.720;6.912;2023-07-02T03:21:44;15.40;99.90
15257;DHT22;7731;50.720;6.912;2023-07-02T03:24:15;15.40;99.90
15257;DHT22;7731;50.720;6.912;2023-07-02T03:26:45;15.40;99.90
15257;DHT22;7731;50.720;6.912;2023-07-02T03:29:19;15.40;99.90
15257;DHT22;7731;50.720;6.912;2023-07-02T03:31:49;15.30;99.90
15257;DHT22;7731;50.720;6.912;2023-07-02T03:34:19;15.30;99.90
15257;DHT22;7731;50.720;6.912;2023-07-02T03:36:53;15.30;99.90
15257;DHT22;7731;50.720;6.912;2023-07-02T03:39:26;15.30;99.90
15257;DHT22;7731;50.720;6.912;2023-07-02T03:41:57;15.20;99.90
15257;DHT22;7731;50.720;6.912;2023-07-02T03:44:29;15.20;99.90
15257;DHT22;7731;50.720;6.912;2023-07-02T03:47:02;15.20;99.90
15257;DHT22;7731;50.720;6.912;2023-07-02T03:49:41;15.10;99.90
15257;DHT22;7731;50.720;6.912;2023-07-02T03:52:17;15.20;99.90
15257;DHT22;7731;50.720;6.912;2023-07-02T03:54:47;15.20;99.90
15257;DHT22;7731;50.720;6.912;2023-07-02T03:57:18;15.20;99.90
15257;DHT22;7731;50.720;6.912;2023-07-02T03:59:53;15.20;99.90
15257;DHT22;7731;50.720;6.912;2023-07-02T04:02:34;15.20;99.90
15257;DHT22;7731;50.720;6.912;2023-07-02T04:05:05;15.30;99.90
15257;DHT22;7731;50.720;6.912;2023-07-02T04:07:46;15.40;99.90
15257;DHT22;7731;50.720;6.912;2023-07-02T04:10:16;15.40;99.90
15257;DHT22;7731;50.720;6.912;2023-07-02T04:12:47;15.40;99.90
15257;DHT22;7731;50.720;6.912;2023-07-02T04:15:17;15.50;99.90
15257;DHT22;7731;50.720;6.912;2023-07-02T04:17:50;15.50;99.90
15257;DHT22;7731;50.720;6.912;2023-07-02T04:20:21;15.60;99.90
15257;DHT22;7731;50.720;6.912;2023-07-02T04:22:55;15.70;99.90
15257;DHT22;7731;50.720;6.912;2023-07-02T04:25:28;15.80;99.90
15257;DHT22;7731;50.720;6.912;2023-07-02T04:28:18;15.90;99.90
15257;DHT22;7731;50.720;6.912;2023-07-02T04:30:48;16.00;99.90
15257;DHT22;7731;50.720;6.912;2023-07-02T04:33:21;16.10;99.90
15257;DHT22;7731;50.720;6.912;2023-07-02T04:35:54;16.10;99.90
15257;DHT22;7731;50.720;6.912;2023-07-02T04:38:27;15.90;99.90
15257;DHT22;7731;50.720;6.912;2023-07-02T04:41:00;15.90;99.90
15257;DHT22;7731;50.720;6.912;2023-07-02T04:43:32;15.90;99.90
15257;DHT22;7731;50.720;6.912;2023-07-02T04:46:14;16.00;99.90
15257;DHT22;7731;50.720;6.912;2023-07-02T04:48:48;15.90;99.90
15257;DHT22;7731;50.720;6.912;2023-07-02T04:51:20;15.90;99.90
15257;DHT22;7731;50.720;6.912;2023-07-02T04:53:51;15.90;99.90
15257;DHT22;7731;50.720;6.912;2023-07-02T04:56:24;15.90;99.90
15257;DHT22;7731;50.720;6.912;2023-07-02T04:58:54;16.00;99.90
15257;DHT22;7731;50.720;6.912;2023-07-02T05:01:30;16.10;99.90
15257;DHT22;7731;50.720;6.912;2023-07-02T05:04:01;16.20;99.90
15257;DHT22;7731;50.720;6.912;2023-07-02T05:06:31;16.30;99.90
15257;DHT22;7731;50.720;6.912;2023-07-02T05:09:02;16.50;99.90
15257;DHT22;7731;50.720;6.912;2023-07-02T05:11:35;16.30;99.90
15257;DHT22;7731;50.720;6.912;2023-07-02T05:14:05;16.30;99.90
15257;DHT22;7731;50.720;6.912;2023-07-02T05:16:41;16.50;99.90
15257;DHT22;7731;50.720;6.912;2023-07-02T05:19:12;16.50;99.90
15257;DHT22;7731;50.720;6.912;2023-07-02T05:21:42;16.70;99.90
15257;DHT22;7731;50.720;6.912;2023-07-02T05:24:12;16.80;99.90
15257;DHT22;7731;50.720;6.912;2023-07-02T05:26:43;17.10;99.90
15257;DHT22;7731;50.720;6.912;2023-07-02T05:29:13;17.20;99.90
15257;DHT22;7731;50.720;6.912;2023-07-02T05:31:46;17.30;99.90
15257;DHT22;7731;50.720;6.912;2023-07-02T05:34:16;17.40;99.90
15257;DHT22;7731;50.720;6.912;2023-07-02T05:36:54;17.60;99.90
15257;DHT22;7731;50.720;6.912;2023-07-02T05:39:24;18.00;99.90
15257;DHT22;7731;50.720;6.912;2023-07-02T05:41:57;19.00;99.90
15257;DHT22;7731;50.720;6.912;2023-07-02T05:44:30;19.80;99.90
15257;DHT22;7731;50.720;6.912;2023-07-02T05:47:03;19.80;99.90
15257;DHT22;7731;50.720;6.912;2023-07-02T05:49:33;19.60;99.90
15257;DHT22;7731;50.720;6.912;2023-07-02T05:52:04;19.50;99.90
15257;DHT22;7731;50.720;6.912;2023-07-02T05:54:38;19.90;99.90
15257;DHT22;7731;50.720;6.912;2023-07-02T05:57:09;20.00;99.90
15257;DHT22;7731;50.720;6.912;2023-07-02T05:59:41;19.90;99.90
15257;DHT22;7731;50.720;6.912;2023-07-02T06:02:14;20.00;99.90
15257;DHT22;7731;50.720;6.912;2023-07-02T06:04:45;20.60;99.90
15257;DHT22;7731;50.720;6.912;2023-07-02T06:07:15;21.10;99.90
15257;DHT22;7731;50.720;6.912;2023-07-02T06:09:46;21.10;99.90
15257;DHT22;7731;50.720;6.912;2023-07-02T06:12:16;21.20;99.90
15257;DHT22;7731;50.720;6.912;2023-07-02T06:14:47;21.20;99.90
15257;DHT22;7731;50.720;6.912;2023-07-02T06:17:20;20.60;99.90
15257;DHT22;7731;50.720;6.912;2023-07-02T06:19:52;20.50;99.90
15257;DHT22;7731;50.720;6.912;2023-07-02T06:22:22;20.30;1.00
15257;DHT22;7731;50.720;6.912;2023-07-02T06:24:53;20.30;1.00
15257;DHT22;7731;50.720;6.912;2023-07-02T06:27:23;20.40;1.00
15257;DHT22;7731;50.720;6.912;2023-07-02T06:29:53;20.70;1.00
15257;DHT22;7731;50.720;6.912;2023-07-02T06:32:28;21.10;1.00
15257;DHT22;7731;50.720;6.912;2023-07-02T06:34:59;21.70;99.90
15257;DHT22;7731;50.720;6.912;2023-07-02T06:37:33;22.90;99.90
15257;DHT22;7731;50.720;6.912;2023-07-02T06:40:05;23.60;99.90
15257;DHT22;7731;50.720;6.912;2023-07-02T06:42:40;23.40;1.00
15257;DHT22;7731;50.720;6.912;2023-07-02T06:45:12;22.80;1.00
15257;DHT22;7731;50.720;6.912;2023-07-02T06:47:48;22.30;99.90
15257;DHT22;7731;50.720;6.912;2023-07-02T06:50:19;22.10;99.90
15257;DHT22;7731;50.720;6.912;2023-07-02T06:52:52;22.00;1.00
15257;DHT22;7731;50.720;6.912;2023-07-02T06:55:22;21.80;1.00
15257;DHT22;7731;50.720;6.912;2023-07-02T06:57:58;21.70;1.00
15257;DHT22;7731;50.720;6.912;2023-07-02T07:00:34;21.50;99.90
15257;DHT22;7731;50.720;6.912;2023-07-02T07:03:16;21.40;99.90
15257;DHT22;7731;50.720;6.912;2023-07-02T07:05:52;21.90;99.90
15257;DHT22;7731;50.720;6.912;2023-07-02T07:08:26;22.30;1.00
15257;DHT22;7731;50.720;6.912;2023-07-02T07:10:56;22.50;99.90
15257;DHT22;7731;50.720;6.912;2023-07-02T07:13:26;22.80;99.90
15257;DHT22;7731;50.720;6.912;2023-07-02T07:15:59;23.00;99.90
15257;DHT22;7731;50.720;6.912;2023-07-02T07:18:33;22.90;1.00
15257;DHT22;7731;50.720;6.912;2023-07-02T07:21:06;23.00;99.90
15257;DHT22;7731;50.720;6.912;2023-07-02T07:23:36;23.10;1.00
15257;DHT22;7731;50.720;6.912;2023-07-02T07:26:07;22.30;1.00
15257;DHT22;7731;50.720;6.912;2023-07-02T07:28:37;22.10;1.00
15257;DHT22;7731;50.720;6.912;2023-07-02T07:31:10;22.70;1.00
15257;DHT22;7731;50.720;6.912;2023-07-02T07:33:43;24.10;1.00
15257;DHT22;7731;50.720;6.912;2023-07-02T07:36:16;24.20;13.60
15257;DHT22;7731;50.720;6.912;2023-07-02T07:38:47;24.10;99.90
15257;DHT22;7731;50.720;6.912;2023-07-02T07:41:17;24.80;1.00
15257;DHT22;7731;50.720;6.912;2023-07-02T07:43:48;26.30;99.90
15257;DHT22;7731;50.720;6.912;2023-07-02T07:46:27;27.20;1.00
15257;DHT22;7731;50.720;6.912;2023-07-02T07:49:08;27.90;1.00
15257;DHT22;7731;50.720;6.912;2023-07-02T07:51:38;28.50;99.90
15257;DHT22;7731;50.720;6.912;2023-07-02T07:54:11;29.50;93.20
15257;DHT22;7731;50.720;6.912;2023-07-02T07:56:41;30.30;1.00
15257;DHT22;7731;50.720;6.912;2023-07-02T07:59:12;30.60;1.00
15257;DHT22;7731;50.720;6.912;2023-07-02T08:01:45;29.80;1.00
15257;DHT22;7731;50.720;6.912;2023-07-02T08:04:18;29.40;1.00
15257;DHT22;7731;50.720;6.912;2023-07-02T08:07:10;27.80;1.00
15257;DHT22;7731;50.720;6.912;2023-07-02T08:09:40;26.60;99.90
15257;DHT22;7731;50.720;6.912;2023-07-02T08:12:10;26.60;99.90
15257;DHT22;7731;50.720;6.912;2023-07-02T08:14:41;26.80;99.90
15257;DHT22;7731;50.720;6.912;2023-07-02T08:17:11;27.10;99.90
15257;DHT22;7731;50.720;6.912;2023-07-02T08:19:44;26.20;99.90
15257;DHT22;7731;50.720;6.912;2023-07-02T08:22:14;25.40;99.90
15257;DHT22;7731;50.720;6.912;2023-07-02T08:24:45;25.20;1.00
15257;DHT22;7731;50.720;6.912;2023-07-02T08:27:16;25.00;1.00
15257;DHT22;7731;50.720;6.912;2023-07-02T08:29:47;25.00;1.00
15257;DHT22;7731;50.720;6.912;2023-07-02T08:32:18;26.00;1.00
15257;DHT22;7731;50.720;6.912;2023-07-02T08:34:51;27.30;99.90
15257;DHT22;7731;50.720;6.912;2023-07-02T08:37:23;27.20;99.90
15257;DHT22;7731;50.720;6.912;2023-07-02T08:39:54;26.60;99.90
15257;DHT22;7731;50.720;6.912;2023-07-02T08:42:24;25.60;99.90
15257;DHT22;7731;50.720;6.912;2023-07-02T08:44:57;24.90;1.00
15257;DHT22;7731;50.720;6.912;2023-07-02T08:47:29;24.60;1.00
15257;DHT22;7731;50.720;6.912;2023-07-02T08:50:06;24.00;18.80
15257;DHT22;7731;50.720;6.912;2023-07-02T08:52:36;23.60;99.90
15257;DHT22;7731;50.720;6.912;2023-07-02T08:55:07;23.20;99.90
15257;DHT22;7731;50.720;6.912;2023-07-02T08:57:38;22.60;1.00
15257;DHT22;7731;50.720;6.912;2023-07-02T09:00:13;22.60;1.00
15257;DHT22;7731;50.720;6.912;2023-07-02T09:02:45;22.30;99.90
15257;DHT22;7731;50.720;6.912;2023-07-02T09:05:18;21.90;1.00
15257;DHT22;7731;50.720;6.912;2023-07-02T09:07:49;21.40;99.90
15257;DHT22;7731;50.720;6.912;2023-07-02T09:10:32;21.10;1.00
15257;DHT22;7731;50.720;6.912;2023-07-02T09:13:03;21.00;1.00
15257;DHT22;7731;50.720;6.912;2023-07-02T09:15:37;21.60;1.00
15257;DHT22;7731;50.720;6.912;2023-07-02T09:18:16;22.30;99.90
15257;DHT22;7731;50.720;6.912;2023-07-02T09:20:50;22.40;99.90
15257;DHT22;7731;50.720;6.912;2023-07-02T09:23:35;22.20;1.00
15257;DHT22;7731;50.720;6.912;2023-07-02T09:26:05;22.30;1.00
15257;DHT22;7731;50.720;6.912;2023-07-02T09:28:35;22.10;97.30
15257;DHT22;7731;50.720;6.912;2023-07-02T09:31:05;22.10;99.90
15257;DHT22;7731;50.720;6.912;2023-07-02T09:33:36;22.00;99.90
15257;DHT22;7731;50.720;6.912;2023-07-02T09:36:09;21.80;1.00
15257;DHT22;7731;50.720;6.912;2023-07-02T09:38:41;21.60;1.00
15257;DHT22;7731;50.720;6.912;2023-07-02T09:41:12;21.60;1.00
15257;DHT22;7731;50.720;6.912;2023-07-02T09:43:42;22.30;99.90
15257;DHT22;7731;50.720;6.912;2023-07-02T09:46:13;22.70;99.90
15257;DHT22;7731;50.720;6.912;2023-07-02T09:48:43;23.50;99.90
15257;DHT22;7731;50.720;6.912;2023-07-02T09:51:19;23.50;99.90
15257;DHT22;7731;50.720;6.912;2023-07-02T09:53:52;24.20;1.00
15257;DHT22;7731;50.720;6.912;2023-07-02T09:56:26;24.30;1.00
15257;DHT22;7731;50.720;6.912;2023-07-02T09:58:57;24.60;1.00
15257;DHT22;7731;50.720;6.912;2023-07-02T10:01:27;26.20;99.90
15257;DHT22;7731;50.720;6.912;2023-07-02T10:03:58;27.90;99.90
15257;DHT22;7731;50.720;6.912;2023-07-02T10:06:49;28.80;55.90
15257;DHT22;7731;50.720;6.912;2023-07-02T10:09:21;28.60;1.00
15257;DHT22;7731;50.720;6.912;2023-07-02T10:12:17;28.00;1.00
15257;DHT22;7731;50.720;6.912;2023-07-02T10:14:52;28.20;28.50
15257;DHT22;7731;50.720;6.912;2023-07-02T10:17:25;27.60;29.90
15257;DHT22;7731;50.720;6.912;2023-07-02T10:20:09;26.10;99.90
15257;DHT22;7731;50.720;6.912;2023-07-02T10:22:47;25.40;99.90
15257;DHT22;7731;50.720;6.912;2023-07-02T10:25:31;25.00;1.00
15257;DHT22;7731;50.720;6.912;2023-07-02T10:28:16;24.30;1.00
15257;DHT22;7731;50.720;6.912;2023-07-02T10:30:49;24.20;1.00
15257;DHT22;7731;50.720;6.912;2023-07-02T10:33:30;23.70;1.00
15257;DHT22;7731;50.720;6.912;2023-07-02T10:36:00;23.10;99.90
15257;DHT22;7731;50.720;6.912;2023-07-02T10:38:33;22.60;99.90
15257;DHT22;7731;50.720;6.912;2023-07-02T10:41:05;22.30;1.00
15257;DHT22;7731;50.720;6.912;2023-07-02T10:43:36;22.30;1.00
15257;DHT22;7731;50.720;6.912;2023-07-02T10:46:18;22.40;1.00
15257;DHT22;7731;50.720;6.912;2023-07-02T10:48:53;23.00;52.80
15257;DHT22;7731;50.720;6.912;2023-07-02T10:51:33;23.80;1.00
15257;DHT22;7731;50.720;6.912;2023-07-02T10:54:06;25.60;99.90
15257;DHT22;7731;50.720;6.912;2023-07-02T10:56:40;25.40;99.90
15257;DHT22;7731;50.720;6.912;2023-07-02T10:59:23;25.60;99.90
15257;DHT22;7731;50.720;6.912;2023-07-02T11:01:56;26.10;99.90
15257;DHT22;7731;50.720;6.912;2023-07-02T11:04:29;26.10;99.90
15257;DHT22;7731;50.720;6.912;2023-07-02T11:07:03;26.60;99.90
15257;DHT22;7731;50.720;6.912;2023-07-02T11:09:51;26.90;37.00
15257;DHT22;7731;50.720;6.912;2023-07-02T11:12:27;26.70;35.60
15257;DHT22;7731;50.720;6.912;2023-07-02T11:15:07;26.60;73.30
15257;DHT22;7731;50.720;6.912;2023-07-02T11:17:38;26.30;72.80
15257;DHT22;7731;50.720;6.912;2023-07-02T11:20:10;25.60;56.40
15257;DHT22;7731;50.720;6.912;2023-07-02T11:22:43;24.90;95.00
15257;DHT22;7731;50.720;6.912;2023-07-02T11:25:18;24.70;99.90
15257;DHT22;7731;50.720;6.912;2023-07-02T11:28:02;24.60;99.90
15257;DHT22;7731;50.720;6.912;2023-07-02T11:30:33;24.80;99.90
15257;DHT22;7731;50.720;6.912;2023-07-02T11:33:17;25.30;99.90
15257;DHT22;7731;50.720;6.912;2023-07-02T11:35:48;25.40;99.90
15257;DHT22;7731;50.720;6.912;2023-07-02T11:38:18;25.70;99.90
15257;DHT22;7731;50.720;6.912;2023-07-02T11:40:53;25.30;99.90
15257;DHT22;7731;50.720;6.912;2023-07-02T11:43:26;25.20;99.90
15257;DHT22;7731;50.720;6.912;2023-07-02T11:46:07;25.40;99.90
15257;DHT22;7731;50.720;6.912;2023-07-02T11:48:37;24.50;99.90
15257;DHT22;7731;50.720;6.912;2023-07-02T11:51:08;23.90;99.90
15257;DHT22;7731;50.720;6.912;2023-07-02T11:53:38;23.60;99.90
15257;DHT22;7731;50.720;6.912;2023-07-02T11:56:11;23.80;1.00
15257;DHT22;7731;50.720;6.912;2023-07-02T11:58:52;23.90;1.00
15257;DHT22;7731;50.720;6.912;2023-07-02T12:01:23;24.40;99.90
15257;DHT22;7731;50.720;6.912;2023-07-02T12:03:56;25.30;99.90
15257;DHT22;7731;50.720;6.912;2023-07-02T12:06:29;24.60;99.90
15257;DHT22;7731;50.720;6.912;2023-07-02T12:08:59;24.40;99.90
15257;DHT22;7731;50.720;6.912;2023-07-02T12:11:32;24.20;1.00
15257;DHT22;7731;50.720;6.912;2023-07-02T12:14:05;24.40;1.00
15257;DHT22;7731;50.720;6.912;2023-07-02T12:16:36;24.20;1.00
15257;DHT22;7731;50.720;6.912;2023-07-02T12:19:06;24.40;1.00
15257;DHT22;7731;50.720;6.912;2023-07-02T12:21:37;24.10;1.00
15257;DHT22;7731;50.720;6.912;2023-07-02T12:24:07;23.90;1.00
15257;DHT22;7731;50.720;6.912;2023-07-02T12:26:42;24.00;1.00
15257;DHT22;7731;50.720;6.912;2023-07-02T12:29:13;23.70;1.00
15257;DHT22;7731;50.720;6.912;2023-07-02T12:31:43;23.40;1.00
15257;DHT22;7731;50.720;6.912;2023-07-02T12:34:13;23.50;1.00
15257;DHT22;7731;50.720;6.912;2023-07-02T12:36:46;23.30;1.00
15257;DHT22;7731;50.720;6.912;2023-07-02T12:39:17;23.30;1.00
15257;DHT22;7731;50.720;6.912;2023-07-02T12:41:52;23.50;1.00
15257;DHT22;7731;50.720;6.912;2023-07-02T12:44:22;23.50;1.00
15257;DHT22;7731;50.720;6.912;2023-07-02T12:46:53;23.50;1.00
15257;DHT22;7731;50.720;6.912;2023-07-02T12:49:23;23.70;1.00
15257;DHT22;7731;50.720;6.912;2023-07-02T12:51:53;23.70;1.00
15257;DHT22;7731;50.720;6.912;2023-07-02T12:54:24;24.20;1.00
15257;DHT22;7731;50.720;6.912;2023-07-02T12:56:56;24.80;99.90
15257;DHT22;7731;50.720;6.912;2023-07-02T12:59:30;25.30;99.90
15257;DHT22;7731;50.720;6.912;2023-07-02T13:02:00;25.40;99.90
15257;DHT22;7731;50.720;6.912;2023-07-02T13:04:34;25.50;99.90
15257;DHT22;7731;50.720;6.912;2023-07-02T13:07:06;24.80;99.90
15257;DHT22;7731;50.720;6.912;2023-07-02T13:09:36;24.70;99.90
15257;DHT22;7731;50.720;6.912;2023-07-02T13:12:10;25.00;99.90
15257;DHT22;7731;50.720;6.912;2023-07-02T13:14:42;25.30;99.90
15257;DHT22;7731;50.720;6.912;2023-07-02T13:17:12;25.30;99.90
15257;DHT22;7731;50.720;6.912;2023-07-02T13:19:45;25.40;99.90
15257;DHT22;7731;50.720;6.912;2023-07-02T13:22:16;25.40;99.90
15257;DHT22;7731;50.720;6.912;2023-07-02T13:24:52;25.20;99.90
15257;DHT22;7731;50.720;6.912;2023-07-02T13:27:25;25.20;99.90
15257;DHT22;7731;50.720;6.912;2023-07-02T13:29:56;25.40;99.90
15257;DHT22;7731;50.720;6.912;2023-07-02T13:32:26;25.60;99.90
15257;DHT22;7731;50.720;6.912;2023-07-02T13:35:01;25.40;99.90
15257;DHT22;7731;50.720;6.912;2023-07-02T13:37:31;25.30;99.90
15257;DHT22;7731;50.720;6.912;2023-07-02T13:40:02;25.20;99.90
15257;DHT22;7731;50.720;6.912;2023-07-02T13:42:44;24.90;99.90
15257;DHT22;7731;50.720;6.912;2023-07-02T13:45:20;24.70;99.90
15257;DHT22;7731;50.720;6.912;2023-07-02T13:47:50;24.80;99.90
15257;DHT22;7731;50.720;6.912;2023-07-02T13:50:24;24.90;99.90
15257;DHT22;7731;50.720;6.912;2023-07-02T13:52:54;24.70;99.90
15257;DHT22;7731;50.720;6.912;2023-07-02T13:55:24;24.70;99.90
15257;DHT22;7731;50.720;6.912;2023-07-02T13:57:58;24.70;71.20
15257;DHT22;7731;50.720;6.912;2023-07-02T14:00:49;24.80;81.80
15257;DHT22;7731;50.720;6.912;2023-07-02T14:03:20;24.80;92.50
15257;DHT22;7731;50.720;6.912;2023-07-02T14:05:50;25.00;99.90
15257;DHT22;7731;50.720;6.912;2023-07-02T14:08:20;25.00;87.70
15257;DHT22;7731;50.720;6.912;2023-07-02T14:10:51;25.20;81.10
15257;DHT22;7731;50.720;6.912;2023-07-02T14:13:24;25.40;74.50
15257;DHT22;7731;50.720;6.912;2023-07-02T14:15:57;25.20;56.40
15257;DHT22;7731;50.720;6.912;2023-07-02T14:18:27;25.50;63.00
15257;DHT22;7731;50.720;6.912;2023-07-02T14:21:00;25.80;61.90
15257;DHT22;7731;50.720;6.912;2023-07-02T14:23:37;25.80;42.70
15257;DHT22;7731;50.720;6.912;2023-07-02T14:26:07;25.70;25.30
15257;DHT22;7731;50.720;6.912;2023-07-02T14:28:37;25.50;37.90
15257;DHT22;7731;50.720;6.912;2023-07-02T14:31:10;25.40;43.60
15257;DHT22;7731;50.720;6.912;2023-07-02T14:33:41;25.20;57.30
15257;DHT22;7731;50.720;6.912;2023-07-02T14:36:11;25.20;47.10
15257;DHT22;7731;50.720;6.912;2023-07-02T14:38:41;25.30;18.50
15257;DHT22;7731;50.720;6.912;2023-07-02T14:41:12;25.30;19.30
15257;DHT22;7731;50.720;6.912;2023-07-02T14:43:42;25.20;39.90
15257;DHT22;7731;50.720;6.912;2023-07-02T14:46:18;25.20;35.30
15257;DHT22;7731;50.720;6.912;2023-07-02T14:48:49;25.10;20.30
15257;DHT22;7731;50.720;6.912;2023-07-02T14:51:19;24.70;38.40
15257;DHT22;7731;50.720;6.912;2023-07-02T14:53:50;24.40;67.60
15257;DHT22;7731;50.720;6.912;2023-07-02T14:56:22;24.50;99.90
15257;DHT22;7731;50.720;6.912;2023-07-02T14:58:53;24.70;99.90
15257;DHT22;7731;50.720;6.912;2023-07-02T15:01:31;24.70;96.20
15257;DHT22;7731;50.720;6.912;2023-07-02T15:04:01;25.10;83.90
15257;DHT22;7731;50.720;6.912;2023-07-02T15:06:32;25.50;40.40
15257;DHT22;7731;50.720;6.912;2023-07-02T15:09:02;25.40;19.60
15257;DHT22;7731;50.720;6.912;2023-07-02T15:11:33;25.40;23.90
15257;DHT22;7731;50.720;6.912;2023-07-02T15:14:03;24.90;11.50
15257;DHT22;7731;50.720;6.912;2023-07-02T15:16:51;24.80;53.00
15257;DHT22;7731;50.720;6.912;2023-07-02T15:19:21;24.70;99.90
15257;DHT22;7731;50.720;6.912;2023-07-02T15:21:52;24.80;99.90
15257;DHT22;7731;50.720;6.912;2023-07-02T15:24:24;25.00;99.90
15257;DHT22;7731;50.720;6.912;2023-07-02T15:26:55;25.00;88.50
15257;DHT22;7731;50.720;6.912;2023-07-02T15:29:26;25.10;74.90
15257;DHT22;7731;50.720;6.912;2023-07-02T15:32:08;25.40;51.30
15257;DHT22;7731;50.720;6.912;2023-07-02T15:34:38;25.20;40.60
15257;DHT22;7731;50.720;6.912;2023-07-02T15:37:08;25.10;49.00
15257;DHT22;7731;50.720;6.912;2023-07-02T15:39:38;24.90;61.60
15257;DHT22;7731;50.720;6.912;2023-07-02T15:42:12;24.70;99.90
15257;DHT22;7731;50.720;6.912;2023-07-02T15:44:42;24.60;99.90
15257;DHT22;7731;50.720;6.912;2023-07-02T15:47:16;24.70;99.90
15257;DHT22;7731;50.720;6.912;2023-07-02T15:49:46;24.80;99.90
15257;DHT22;7731;50.720;6.912;2023-07-02T15:52:18;25.20;99.90
15257;DHT22;7731;50.720;6.912;2023-07-02T15:54:49;25.00;99.90
15257;DHT22;7731;50.720;6.912;2023-07-02T15:57:22;25.00;99.90
15257;DHT22;7731;50.720;6.912;2023-07-02T15:59:53;25.00;99.90
15257;DHT22;7731;50.720;6.912;2023-07-02T16:02:29;24.80;98.80
15257;DHT22;7731;50.720;6.912;2023-07-02T16:05:00;24.70;99.90
15257;DHT22;7731;50.720;6.912;2023-07-02T16:07:30;24.80;99.90
15257;DHT22;7731;50.720;6.912;2023-07-02T16:10:02;24.80;99.90
15257;DHT22;7731;50.720;6.912;2023-07-02T16:12:33;24.60;99.90
15257;DHT22;7731;50.720;6.912;2023-07-02T16:15:04;24.40;99.90
15257;DHT22;7731;50.720;6.912;2023-07-02T16:17:38;24.40;99.90
15257;DHT22;7731;50.720;6.912;2023-07-02T16:20:09;24.30;99.90
15257;DHT22;7731;50.720;6.912;2023-07-02T16:22:40;24.30;99.90
15257;DHT22;7731;50.720;6.912;2023-07-02T16:25:11;24.50;99.90